sensor_id;sensor_type;location;lat;lon;timestamp;P1;durP1;ratioP1;P2;durP2;ratioP2
61785;SDS011;47692;53.714;11.372;2022-07-17T00:02:12;2.35;;;1.20;;
61785;SDS011;47692;53.714;11.372;2022-07-17T00:04:37;5.05;;;1.40;;
61785;SDS011;47692;53.714;11.372;2022-07-17T00:07:03;5.35;;;1.50;;
61785;SDS011;47692;53.714;11.372;2022-07-17T00:09:28;5.40;;;1.10;;
61785;SDS011;47692;53.714;11.372;2022-07-17T00:11:53;3.00;;;1.20;;
61785;SDS011;47692;53.714;11.372;2022-07-17T00:14:19;3.35;;;1.35;;
61785;SDS011;47692;53.714;11.372;2022-07-17T00:16:44;3.65;;;1.50;;
61785;SDS011;47692;53.714;11.372;2022-07-17T00:19:09;6.30;;;1.33;;
61785;SDS011;47692;53.714;11.372;2022-07-17T00:21:35;3.22;;;1.13;;
61785;SDS011;47692;53.714;11.372;2022-07-17T00:24:00;2.92;;;1.20;;
61785;SDS011;47692;53.714;11.372;2022-07-17T00:26:26;5.95;;;1.38;;
61785;SDS011;47692;53.714;11.372;2022-07-17T00:28:51;4.93;;;1.30;;
61785;SDS011;47692;53.714;11.372;2022-07-17T00:31:16;5.53;;;1.27;;
61785;SDS011;47692;53.714;11.372;2022-07-17T00:33:42;2.85;;;0.98;;
61785;SDS011;47692;53.714;11.372;2022-07-17T00:36:07;3.22;;;1.10;;
61785;SDS011;47692;53.714;11.372;2022-07-17T00:38:33;5.40;;;1.30;;
61785;SDS011;47692;53.714;11.372;2022-07-17T00:40:58;6.00;;;1.40;;
61785;SDS011;47692;53.714;11.372;2022-07-17T00:43:24;3.13;;;1.00;;
61785;SDS011;47692;53.714;11.372;2022-07-17T00:46:00;5.43;;;1.55;;
61785;SDS011;47692;53.714;11.372;2022-07-17T00:48:27;4.85;;;1.38;;
61785;SDS011;47692;53.714;11.372;2022-07-17T00:50:52;2.67;;;1.15;;
61785;SDS011;47692;53.714;11.372;2022-07-17T00:53:18;3.03;;;1.40;;
61785;SDS011;47692;53.714;11.372;2022-07-17T00:55:45;4.25;;;1.23;;
61785;SDS011;47692;53.714;11.372;2022-07-17T00:58:16;4.85;;;1.15;;
61785;SDS011;47692;53.714;11.372;2022-07-17T01:00:47;5.88;;;1.38;;
61785;SDS011;47692;53.714;11.372;2022-07-17T01:03:14;2.63;;;1.10;;
61785;SDS011;47692;53.714;11.372;2022-07-17T01:05:40;3.83;;;1.50;;
61785;SDS011;47692;53.714;11.372;2022-07-17T01:08:06;2.90;;;1.05;;
61785;SDS011;47692;53.714;11.372;2022-07-17T01:10:32;10.48;;;1.42;;
61785;SDS011;47692;53.714;11.372;2022-07-17T01:12:57;6.82;;;1.92;;
61785;SDS011;47692;53.714;11.372;2022-07-17T01:15:23;3.42;;;1.40;;
61785;SDS011;47692;53.714;11.372;2022-07-17T01:17:49;2.85;;;1.33;;
61785;SDS011;47692;53.714;11.372;2022-07-17T01:20:14;6.90;;;1.35;;
61785;SDS011;47692;53.714;11.372;2022-07-17T01:22:47;3.38;;;1.20;;
61785;SDS011;47692;53.714;11.372;2022-07-17T01:25:14;5.30;;;1.60;;
61785;SDS011;47692;53.714;11.372;2022-07-17T01:27:40;4.43;;;1.33;;
61785;SDS011;47692;53.714;11.372;2022-07-17T01:30:06;9.90;;;1.40;;
61785;SDS011;47692;53.714;11.372;2022-07-17T01:32:35;3.42;;;1.30;;
61785;SDS011;47692;53.714;11.372;2022-07-17T01:35:03;7.47;;;1.40;;
61785;SDS011;47692;53.714;11.372;2022-07-17T01:37:30;5.03;;;1.20;;
61785;SDS011;47692;53.714;11.372;2022-07-17T01:39:56;4.18;;;1.30;;
61785;SDS011;47692;53.714;11.372;2022-07-17T01:42:22;4.18;;;1.20;;
61785;SDS011;47692;53.714;11.372;2022-07-17T01:44:50;8.10;;;1.52;;
61785;SDS011;47692;53.714;11.372;2022-07-17T01:47:16;2.40;;;1.23;;
61785;SDS011;47692;53.714;11.372;2022-07-17T01:49:49;5.00;;;1.45;;
61785;SDS011;47692;53.714;11.372;2022-07-17T01:52:16;5.10;;;1.33;;
61785;SDS011;47692;53.714;11.372;2022-07-17T01:54:42;3.40;;;1.38;;
61785;SDS011;47692;53.714;11.372;2022-07-17T01:57:08;4.20;;;1.42;;
61785;SDS011;47692;53.714;11.372;2022-07-17T01:59:34;6.82;;;1.77;;
61785;SDS011;47692;53.714;11.372;2022-07-17T02:02:00;6.85;;;1.67;;
61785;SDS011;47692;53.714;11.372;2022-07-17T02:04:25;4.68;;;1.27;;
61785;SDS011;47692;53.714;11.372;2022-07-17T02:06:52;7.03;;;1.75;;
61785;SDS011;47692;53.714;11.372;2022-07-17T02:09:19;2.47;;;1.50;;
61785;SDS011;47692;53.714;11.372;2022-07-17T02:11:45;4.53;;;1.40;;
61785;SDS011;47692;53.714;11.372;2022-07-17T02:14:10;7.88;;;1.35;;
61785;SDS011;47692;53.714;11.372;2022-07-17T02:16:36;6.82;;;1.40;;
61785;SDS011;47692;53.714;11.372;2022-07-17T02:19:01;4.35;;;1.30;;
61785;SDS011;47692;53.714;11.372;2022-07-17T02:21:27;6.13;;;1.70;;
61785;SDS011;47692;53.714;11.372;2022-07-17T02:23:52;5.63;;;1.40;;
61785;SDS011;47692;53.714;11.372;2022-07-17T02:26:18;3.42;;;1.48;;
61785;SDS011;47692;53.714;11.372;2022-07-17T02:28:43;9.88;;;2.10;;
61785;SDS011;47692;53.714;11.372;2022-07-17T02:31:08;6.05;;;1.60;;
61785;SDS011;47692;53.714;11.372;2022-07-17T02:33:34;8.20;;;1.67;;
61785;SDS011;47692;53.714;11.372;2022-07-17T02:35:59;7.45;;;1.63;;
61785;SDS011;47692;53.714;11.372;2022-07-17T02:38:26;3.67;;;1.42;;
61785;SDS011;47692;53.714;11.372;2022-07-17T02:40:51;7.47;;;1.83;;
61785;SDS011;47692;53.714;11.372;2022-07-17T02:43:17;6.80;;;2.28;;
61785;SDS011;47692;53.714;11.372;2022-07-17T02:45:42;5.28;;;1.55;;
61785;SDS011;47692;53.714;11.372;2022-07-17T02:48:08;3.50;;;1.35;;
61785;SDS011;47692;53.714;11.372;2022-07-17T02:50:33;3.08;;;1.40;;
61785;SDS011;47692;53.714;11.372;2022-07-17T02:52:58;5.90;;;1.55;;
61785;SDS011;47692;53.714;11.372;2022-07-17T02:55:24;5.35;;;1.70;;
61785;SDS011;47692;53.714;11.372;2022-07-17T02:57:49;7.57;;;2.13;;
61785;SDS011;47692;53.714;11.372;2022-07-17T03:00:15;3.65;;;1.60;;
61785;SDS011;47692;53.714;11.372;2022-07-17T03:02:43;3.45;;;1.27;;
61785;SDS011;47692;53.714;11.372;2022-07-17T03:05:09;6.32;;;1.40;;
61785;SDS011;47692;53.714;11.372;2022-07-17T03:07:35;6.30;;;1.40;;
61785;SDS011;47692;53.714;11.372;2022-07-17T03:10:00;7.07;;;2.08;;
61785;SDS011;47692;53.714;11.372;2022-07-17T03:12:26;6.97;;;1.40;;
61785;SDS011;47692;53.714;11.372;2022-07-17T03:14:52;7.57;;;1.73;;
61785;SDS011;47692;53.714;11.372;2022-07-17T03:17:18;4.03;;;1.20;;
61785;SDS011;47692;53.714;11.372;2022-07-17T03:19:43;6.05;;;1.52;;
61785;SDS011;47692;53.714;11.372;2022-07-17T03:22:08;4.53;;;1.42;;
61785;SDS011;47692;53.714;11.372;2022-07-17T03:24:34;5.00;;;1.80;;
61785;SDS011;47692;53.714;11.372;2022-07-17T03:26:59;4.38;;;1.48;;
61785;SDS011;47692;53.714;11.372;2022-07-17T03:29:24;3.63;;;1.40;;
61785;SDS011;47692;53.714;11.372;2022-07-17T03:31:50;11.23;;;1.77;;
61785;SDS011;47692;53.714;11.372;2022-07-17T03:34:15;4.03;;;1.50;;
61785;SDS011;47692;53.714;11.372;2022-07-17T03:36:41;7.65;;;1.55;;
61785;SDS011;47692;53.714;11.372;2022-07-17T03:39:06;4.43;;;1.58;;
61785;SDS011;47692;53.714;11.372;2022-07-17T03:41:32;6.85;;;1.58;;
61785;SDS011;47692;53.714;11.372;2022-07-17T03:43:57;4.80;;;1.50;;
61785;SDS011;47692;53.714;11.372;2022-07-17T03:46:23;4.22;;;1.27;;
61785;SDS011;47692;53.714;11.372;2022-07-17T03:48:48;10.50;;;2.05;;
61785;SDS011;47692;53.714;11.372;2022-07-17T03:51:14;6.65;;;1.70;;
61785;SDS011;47692;53.714;11.372;2022-07-17T03:53:39;3.78;;;1.48;;
61785;SDS011;47692;53.714;11.372;2022-07-17T03:56:05;3.60;;;1.60;;
61785;SDS011;47692;53.714;11.372;2022-07-17T03:58:31;3.90;;;1.40;;
61785;SDS011;47692;53.714;11.372;2022-07-17T04:00:57;4.13;;;1.58;;
61785;SDS011;47692;53.714;11.372;2022-07-17T04:03:22;4.97;;;1.40;;
61785;SDS011;47692;53.714;11.372;2022-07-17T04:05:47;6.82;;;1.40;;
61785;SDS011;47692;53.714;11.372;2022-07-17T04:08:13;4.78;;;1.75;;
61785;SDS011;47692;53.714;11.372;2022-07-17T04:10:39;8.15;;;2.50;;
61785;SDS011;47692;53.714;11.372;2022-07-17T04:13:04;4.43;;;1.63;;
61785;SDS011;47692;53.714;11.372;2022-07-17T04:15:29;6.70;;;1.77;;
61785;SDS011;47692;53.714;11.372;2022-07-17T04:18:14;10.43;;;2.42;;
61785;SDS011;47692;53.714;11.372;2022-07-17T04:20:39;2.70;;;1.40;;
61785;SDS011;47692;53.714;11.372;2022-07-17T04:23:04;5.93;;;1.58;;
61785;SDS011;47692;53.714;11.372;2022-07-17T04:25:30;3.35;;;1.50;;
61785;SDS011;47692;53.714;11.372;2022-07-17T04:27:56;6.70;;;1.48;;
61785;SDS011;47692;53.714;11.372;2022-07-17T04:30:21;5.07;;;1.80;;
61785;SDS011;47692;53.714;11.372;2022-07-17T04:32:47;7.85;;;1.67;;
61785;SDS011;47692;53.714;11.372;2022-07-17T04:35:12;9.07;;;1.70;;
61785;SDS011;47692;53.714;11.372;2022-07-17T04:37:37;7.28;;;1.58;;
61785;SDS011;47692;53.714;11.372;2022-07-17T04:40:03;5.55;;;1.48;;
61785;SDS011;47692;53.714;11.372;2022-07-17T04:42:28;7.20;;;1.70;;
61785;SDS011;47692;53.714;11.372;2022-07-17T04:44:54;4.03;;;1.50;;
61785;SDS011;47692;53.714;11.372;2022-07-17T04:47:19;7.68;;;2.17;;
61785;SDS011;47692;53.714;11.372;2022-07-17T04:49:44;7.38;;;1.48;;
61785;SDS011;47692;53.714;11.372;2022-07-17T04:52:10;3.47;;;1.38;;
61785;SDS011;47692;53.714;11.372;2022-07-17T04:54:36;8.02;;;1.83;;
61785;SDS011;47692;53.714;11.372;2022-07-17T04:57:01;3.85;;;1.70;;
61785;SDS011;47692;53.714;11.372;2022-07-17T04:59:27;5.88;;;1.85;;
61785;SDS011;47692;53.714;11.372;2022-07-17T05:01:52;4.65;;;1.50;;
61785;SDS011;47692;53.714;11.372;2022-07-17T05:04:17;6.43;;;1.55;;
61785;SDS011;47692;53.714;11.372;2022-07-17T05:06:43;4.35;;;1.13;;
61785;SDS011;47692;53.714;11.372;2022-07-17T05:09:08;2.05;;;1.15;;
61785;SDS011;47692;53.714;11.372;2022-07-17T05:11:33;7.97;;;1.42;;
61785;SDS011;47692;53.714;11.372;2022-07-17T05:13:59;7.63;;;1.60;;
61785;SDS011;47692;53.714;11.372;2022-07-17T05:16:24;7.72;;;1.63;;
61785;SDS011;47692;53.714;11.372;2022-07-17T05:18:49;3.58;;;1.50;;
61785;SDS011;47692;53.714;11.372;2022-07-17T05:21:15;5.55;;;1.27;;
61785;SDS011;47692;53.714;11.372;2022-07-17T05:23:40;5.70;;;1.67;;
61785;SDS011;47692;53.714;11.372;2022-07-17T05:26:05;6.90;;;1.55;;
61785;SDS011;47692;53.714;11.372;2022-07-17T05:28:31;4.05;;;1.48;;
61785;SDS011;47692;53.714;11.372;2022-07-17T05:30:56;6.22;;;1.42;;
61785;SDS011;47692;53.714;11.372;2022-07-17T05:33:22;5.40;;;1.45;;
61785;SDS011;47692;53.714;11.372;2022-07-17T05:35:47;3.40;;;1.30;;
61785;SDS011;47692;53.714;11.372;2022-07-17T05:38:12;5.65;;;1.52;;
61785;SDS011;47692;53.714;11.372;2022-07-17T05:40:38;4.20;;;1.25;;
61785;SDS011;47692;53.714;11.372;2022-07-17T05:43:03;5.22;;;1.52;;
61785;SDS011;47692;53.714;11.372;2022-07-17T05:45:28;6.65;;;1.48;;
61785;SDS011;47692;53.714;11.372;2022-07-17T05:47:54;9.50;;;2.38;;
61785;SDS011;47692;53.714;11.372;2022-07-17T05:50:19;5.22;;;1.60;;
61785;SDS011;47692;53.714;11.372;2022-07-17T05:52:44;5.35;;;1.40;;
61785;SDS011;47692;53.714;11.372;2022-07-17T05:55:10;5.07;;;1.35;;
61785;SDS011;47692;53.714;11.372;2022-07-17T05:57:35;7.43;;;1.60;;
61785;SDS011;47692;53.714;11.372;2022-07-17T06:00:00;6.88;;;1.73;;
61785;SDS011;47692;53.714;11.372;2022-07-17T06:02:26;6.38;;;1.45;;
61785;SDS011;47692;53.714;11.372;2022-07-17T06:04:51;6.20;;;1.60;;
61785;SDS011;47692;53.714;11.372;2022-07-17T06:07:17;5.47;;;1.63;;
61785;SDS011;47692;53.714;11.372;2022-07-17T06:09:42;3.45;;;1.48;;
61785;SDS011;47692;53.714;11.372;2022-07-17T06:12:07;2.50;;;0.95;;
61785;SDS011;47692;53.714;11.372;2022-07-17T06:14:33;3.35;;;1.38;;
61785;SDS011;47692;53.714;11.372;2022-07-17T06:16:58;4.53;;;1.15;;
61785;SDS011;47692;53.714;11.372;2022-07-17T06:19:23;4.57;;;1.20;;
61785;SDS011;47692;53.714;11.372;2022-07-17T06:21:49;4.93;;;1.50;;
61785;SDS011;47692;53.714;11.372;2022-07-17T06:24:14;4.13;;;1.30;;
61785;SDS011;47692;53.714;11.372;2022-07-17T06:26:39;3.58;;;1.13;;
61785;SDS011;47692;53.714;11.372;2022-07-17T06:29:05;3.35;;;1.10;;
61785;SDS011;47692;53.714;11.372;2022-07-17T06:31:30;8.77;;;1.23;;
61785;SDS011;47692;53.714;11.372;2022-07-17T06:33:55;4.20;;;1.23;;
61785;SDS011;47692;53.714;11.372;2022-07-17T06:36:21;6.72;;;1.50;;
61785;SDS011;47692;53.714;11.372;2022-07-17T06:38:46;6.53;;;1.45;;
61785;SDS011;47692;53.714;11.372;2022-07-17T06:41:11;3.95;;;1.58;;
61785;SDS011;47692;53.714;11.372;2022-07-17T06:43:37;4.93;;;1.23;;
61785;SDS011;47692;53.714;11.372;2022-07-17T06:46:02;3.33;;;1.40;;
61785;SDS011;47692;53.714;11.372;2022-07-17T06:48:27;6.07;;;1.85;;
61785;SDS011;47692;53.714;11.372;2022-07-17T06:50:53;3.97;;;1.20;;
61785;SDS011;47692;53.714;11.372;2022-07-17T06:53:18;2.67;;;1.30;;
61785;SDS011;47692;53.714;11.372;2022-07-17T06:55:44;4.63;;;1.38;;
61785;SDS011;47692;53.714;11.372;2022-07-17T06:58:09;5.18;;;1.48;;
61785;SDS011;47692;53.714;11.372;2022-07-17T07:00:35;6.00;;;1.30;;
61785;SDS011;47692;53.714;11.372;2022-07-17T07:03:00;2.25;;;1.17;;
61785;SDS011;47692;53.714;11.372;2022-07-17T07:05:26;5.45;;;1.25;;
61785;SDS011;47692;53.714;11.372;2022-07-17T07:07:51;3.17;;;1.10;;
61785;SDS011;47692;53.714;11.372;2022-07-17T07:10:17;3.45;;;1.02;;
61785;SDS011;47692;53.714;11.372;2022-07-17T07:12:42;4.30;;;1.33;;
61785;SDS011;47692;53.714;11.372;2022-07-17T07:15:08;5.43;;;1.08;;
61785;SDS011;47692;53.714;11.372;2022-07-17T07:17:34;7.88;;;1.30;;
61785;SDS011;47692;53.714;11.372;2022-07-17T07:20:01;2.70;;;0.95;;
61785;SDS011;47692;53.714;11.372;2022-07-17T07:22:28;4.28;;;1.27;;
61785;SDS011;47692;53.714;11.372;2022-07-17T07:24:54;7.30;;;1.27;;
61785;SDS011;47692;53.714;11.372;2022-07-17T07:27:19;5.72;;;1.45;;
61785;SDS011;47692;53.714;11.372;2022-07-17T07:29:45;9.00;;;1.25;;
61785;SDS011;47692;53.714;11.372;2022-07-17T07:32:11;6.43;;;1.25;;
61785;SDS011;47692;53.714;11.372;2022-07-17T07:34:36;3.92;;;1.10;;
61785;SDS011;47692;53.714;11.372;2022-07-17T07:37:02;5.28;;;1.30;;
61785;SDS011;47692;53.714;11.372;2022-07-17T07:39:27;2.92;;;1.02;;
61785;SDS011;47692;53.714;11.372;2022-07-17T07:41:52;4.97;;;1.50;;
61785;SDS011;47692;53.714;11.372;2022-07-17T07:44:18;4.22;;;1.23;;
61785;SDS011;47692;53.714;11.372;2022-07-17T07:46:43;3.90;;;1.20;;
61785;SDS011;47692;53.714;11.372;2022-07-17T07:49:09;3.55;;;1.15;;
61785;SDS011;47692;53.714;11.372;2022-07-17T07:51:34;6.35;;;1.17;;
61785;SDS011;47692;53.714;11.372;2022-07-17T07:53:59;4.10;;;1.20;;
61785;SDS011;47692;53.714;11.372;2022-07-17T07:56:25;5.03;;;1.30;;
61785;SDS011;47692;53.714;11.372;2022-07-17T07:58:50;5.35;;;1.27;;
61785;SDS011;47692;53.714;11.372;2022-07-17T08:01:16;6.82;;;1.15;;
61785;SDS011;47692;53.714;11.372;2022-07-17T08:03:41;4.93;;;1.02;;
61785;SDS011;47692;53.714;11.372;2022-07-17T08:06:06;5.45;;;0.90;;
61785;SDS011;47692;53.714;11.372;2022-07-17T08:08:32;6.55;;;1.27;;
61785;SDS011;47692;53.714;11.372;2022-07-17T08:10:57;4.00;;;1.40;;
61785;SDS011;47692;53.714;11.372;2022-07-17T08:13:22;4.30;;;1.23;;
61785;SDS011;47692;53.714;11.372;2022-07-17T08:15:48;4.97;;;1.20;;
61785;SDS011;47692;53.714;11.372;2022-07-17T08:18:13;5.22;;;0.90;;
61785;SDS011;47692;53.714;11.372;2022-07-17T08:20:38;6.20;;;1.20;;
61785;SDS011;47692;53.714;11.372;2022-07-17T08:23:04;5.00;;;1.02;;
61785;SDS011;47692;53.714;11.372;2022-07-17T08:25:29;3.83;;;0.90;;
61785;SDS011;47692;53.714;11.372;2022-07-17T08:27:55;2.60;;;1.00;;
61785;SDS011;47692;53.714;11.372;2022-07-17T08:30:20;6.25;;;1.30;;
61785;SDS011;47692;53.714;11.372;2022-07-17T08:32:46;8.20;;;1.52;;
61785;SDS011;47692;53.714;11.372;2022-07-17T08:35:11;4.78;;;1.02;;
61785;SDS011;47692;53.714;11.372;2022-07-17T08:37:47;4.10;;;1.20;;
61785;SDS011;47692;53.714;11.372;2022-07-17T08:40:18;3.65;;;1.05;;
61785;SDS011;47692;53.714;11.372;2022-07-17T08:42:46;3.47;;;1.00;;
61785;SDS011;47692;53.714;11.372;2022-07-17T08:45:12;3.50;;;0.90;;
61785;SDS011;47692;53.714;11.372;2022-07-17T08:47:38;5.55;;;1.00;;
61785;SDS011;47692;53.714;11.372;2022-07-17T08:50:04;3.72;;;1.00;;
61785;SDS011;47692;53.714;11.372;2022-07-17T08:52:30;7.55;;;1.08;;
61785;SDS011;47692;53.714;11.372;2022-07-17T08:54:55;4.57;;;1.05;;
61785;SDS011;47692;53.714;11.372;2022-07-17T08:57:22;4.07;;;1.02;;
61785;SDS011;47692;53.714;11.372;2022-07-17T08:59:47;3.03;;;0.73;;
61785;SDS011;47692;53.714;11.372;2022-07-17T09:02:13;3.53;;;1.13;;
61785;SDS011;47692;53.714;11.372;2022-07-17T09:04:39;6.15;;;1.30;;
61785;SDS011;47692;53.714;11.372;2022-07-17T09:07:05;7.07;;;1.02;;
61785;SDS011;47692;53.714;11.372;2022-07-17T09:09:31;1.13;;;0.50;;
61785;SDS011;47692;53.714;11.372;2022-07-17T09:11:59;5.07;;;1.27;;
61785;SDS011;47692;53.714;11.372;2022-07-17T09:14:35;5.07;;;0.98;;
61785;SDS011;47692;53.714;11.372;2022-07-17T09:17:05;4.40;;;0.88;;
61785;SDS011;47692;53.714;11.372;2022-07-17T09:19:33;2.78;;;0.90;;
61785;SDS011;47692;53.714;11.372;2022-07-17T09:22:21;5.82;;;1.13;;
61785;SDS011;47692;53.714;11.372;2022-07-17T09:24:51;2.22;;;0.70;;
61785;SDS011;47692;53.714;11.372;2022-07-17T09:29:56;2.72;;;0.70;;
61785;SDS011;47692;53.714;11.372;2022-07-17T09:32:33;3.33;;;0.95;;
61785;SDS011;47692;53.714;11.372;2022-07-17T09:35:00;3.00;;;0.80;;
61785;SDS011;47692;53.714;11.372;2022-07-17T09:37:28;5.10;;;0.90;;
61785;SDS011;47692;53.714;11.372;2022-07-17T09:39:55;3.55;;;0.95;;
61785;SDS011;47692;53.714;11.372;2022-07-17T09:42:28;6.47;;;0.80;;
61785;SDS011;47692;53.714;11.372;2022-07-17T09:44:58;2.50;;;0.70;;
61785;SDS011;47692;53.714;11.372;2022-07-17T09:47:24;5.95;;;0.85;;
61785;SDS011;47692;53.714;11.372;2022-07-17T09:49:52;4.03;;;1.00;;
61785;SDS011;47692;53.714;11.372;2022-07-17T09:52:19;6.95;;;1.25;;
61785;SDS011;47692;53.714;11.372;2022-07-17T09:54:46;4.47;;;0.98;;
61785;SDS011;47692;53.714;11.372;2022-07-17T09:57:13;2.33;;;0.88;;
61785;SDS011;47692;53.714;11.372;2022-07-17T09:59:39;3.72;;;0.98;;
61785;SDS011;47692;53.714;11.372;2022-07-17T10:02:06;3.78;;;0.88;;
61785;SDS011;47692;53.714;11.372;2022-07-17T10:04:32;4.20;;;1.20;;
61785;SDS011;47692;53.714;11.372;2022-07-17T10:06:57;2.97;;;1.05;;
61785;SDS011;47692;53.714;11.372;2022-07-17T10:09:23;2.70;;;0.80;;
61785;SDS011;47692;53.714;11.372;2022-07-17T10:11:49;3.63;;;0.80;;
61785;SDS011;47692;53.714;11.372;2022-07-17T10:14:16;4.32;;;0.98;;
61785;SDS011;47692;53.714;11.372;2022-07-17T10:16:43;3.80;;;1.10;;
61785;SDS011;47692;53.714;11.372;2022-07-17T10:19:23;2.88;;;1.25;;
61785;SDS011;47692;53.714;11.372;2022-07-17T10:21:57;2.28;;;0.70;;
61785;SDS011;47692;53.714;11.372;2022-07-17T10:24:25;2.25;;;0.80;;
61785;SDS011;47692;53.714;11.372;2022-07-17T10:26:51;5.03;;;0.90;;
61785;SDS011;47692;53.714;11.372;2022-07-17T10:29:32;4.13;;;1.20;;
61785;SDS011;47692;53.714;11.372;2022-07-17T10:32:03;4.03;;;0.90;;
61785;SDS011;47692;53.714;11.372;2022-07-17T10:37:26;3.88;;;1.00;;
61785;SDS011;47692;53.714;11.372;2022-07-17T10:40:10;2.45;;;0.85;;
61785;SDS011;47692;53.714;11.372;2022-07-17T10:45:09;3.53;;;1.02;;
61785;SDS011;47692;53.714;11.372;2022-07-17T10:50:09;3.92;;;0.88;;
61785;SDS011;47692;53.714;11.372;2022-07-17T10:52:36;4.40;;;1.20;;
61785;SDS011;47692;53.714;11.372;2022-07-17T10:55:02;5.53;;;0.90;;
61785;SDS011;47692;53.714;11.372;2022-07-17T10:57:30;4.88;;;1.38;;
61785;SDS011;47692;53.714;11.372;2022-07-17T10:59:56;5.05;;;0.90;;
61785;SDS011;47692;53.714;11.372;2022-07-17T11:02:31;3.08;;;1.10;;
61785;SDS011;47692;53.714;11.372;2022-07-17T11:05:15;2.40;;;0.90;;
61785;SDS011;47692;53.714;11.372;2022-07-17T11:07:57;2.03;;;0.90;;
61785;SDS011;47692;53.714;11.372;2022-07-17T11:10:24;2.15;;;1.00;;
61785;SDS011;47692;53.714;11.372;2022-07-17T11:12:52;3.97;;;0.80;;
61785;SDS011;47692;53.714;11.372;2022-07-17T11:18:21;3.20;;;0.88;;
61785;SDS011;47692;53.714;11.372;2022-07-17T11:23:12;3.15;;;1.00;;
61785;SDS011;47692;53.714;11.372;2022-07-17T11:25:38;3.22;;;0.85;;
61785;SDS011;47692;53.714;11.372;2022-07-17T11:28:04;2.50;;;0.80;;
61785;SDS011;47692;53.714;11.372;2022-07-17T11:30:29;3.20;;;1.00;;
61785;SDS011;47692;53.714;11.372;2022-07-17T11:32:55;2.47;;;1.13;;
61785;SDS011;47692;53.714;11.372;2022-07-17T11:35:22;2.15;;;1.20;;
61785;SDS011;47692;53.714;11.372;2022-07-17T11:37:48;3.00;;;0.88;;
61785;SDS011;47692;53.714;11.372;2022-07-17T11:40:15;2.13;;;0.80;;
61785;SDS011;47692;53.714;11.372;2022-07-17T11:42:41;4.03;;;1.00;;
61785;SDS011;47692;53.714;11.372;2022-07-17T11:45:07;2.65;;;0.90;;
61785;SDS011;47692;53.714;11.372;2022-07-17T11:47:34;2.65;;;0.80;;
61785;SDS011;47692;53.714;11.372;2022-07-17T11:50:03;3.70;;;1.02;;
61785;SDS011;47692;53.714;11.372;2022-07-17T11:52:38;2.97;;;1.02;;
61785;SDS011;47692;53.714;11.372;2022-07-17T11:55:06;3.35;;;1.00;;
61785;SDS011;47692;53.714;11.372;2022-07-17T11:57:40;2.90;;;1.10;;
61785;SDS011;47692;53.714;11.372;2022-07-17T12:00:08;3.92;;;1.35;;
61785;SDS011;47692;53.714;11.372;2022-07-17T12:02:34;3.38;;;1.00;;
61785;SDS011;47692;53.714;11.372;2022-07-17T12:04:59;2.65;;;0.80;;
61785;SDS011;47692;53.714;11.372;2022-07-17T12:07:26;2.53;;;1.02;;
61785;SDS011;47692;53.714;11.372;2022-07-17T12:10:20;2.28;;;0.90;;
61785;SDS011;47692;53.714;11.372;2022-07-17T12:18:06;2.97;;;0.80;;
61785;SDS011;47692;53.714;11.372;2022-07-17T12:20:45;3.00;;;0.98;;
61785;SDS011;47692;53.714;11.372;2022-07-17T12:26:06;2.80;;;0.90;;
61785;SDS011;47692;53.714;11.372;2022-07-17T12:28:33;2.30;;;1.00;;
61785;SDS011;47692;53.714;11.372;2022-07-17T12:30:59;4.15;;;1.23;;
61785;SDS011;47692;53.714;11.372;2022-07-17T12:33:24;2.45;;;0.75;;
61785;SDS011;47692;53.714;11.372;2022-07-17T12:35:50;3.28;;;0.90;;
61785;SDS011;47692;53.714;11.372;2022-07-17T12:38:15;4.22;;;1.08;;
61785;SDS011;47692;53.714;11.372;2022-07-17T12:40:41;5.70;;;1.00;;
61785;SDS011;47692;53.714;11.372;2022-07-17T12:43:07;3.75;;;1.00;;
61785;SDS011;47692;53.714;11.372;2022-07-17T12:45:33;3.70;;;1.05;;
61785;SDS011;47692;53.714;11.372;2022-07-17T12:47:59;4.45;;;1.00;;
61785;SDS011;47692;53.714;11.372;2022-07-17T12:50:24;3.33;;;1.00;;
61785;SDS011;47692;53.714;11.372;2022-07-17T12:52:49;2.63;;;1.00;;
61785;SDS011;47692;53.714;11.372;2022-07-17T12:55:15;3.65;;;1.15;;
61785;SDS011;47692;53.714;11.372;2022-07-17T12:57:40;2.47;;;1.00;;
61785;SDS011;47692;53.714;11.372;2022-07-17T13:00:06;4.88;;;1.33;;
61785;SDS011;47692;53.714;11.372;2022-07-17T13:02:31;4.57;;;1.08;;
61785;SDS011;47692;53.714;11.372;2022-07-17T13:04:57;3.85;;;0.95;;
61785;SDS011;47692;53.714;11.372;2022-07-17T13:07:22;2.75;;;0.90;;
61785;SDS011;47692;53.714;11.372;2022-07-17T13:09:47;2.47;;;1.00;;
61785;SDS011;47692;53.714;11.372;2022-07-17T13:12:13;1.77;;;0.75;;
61785;SDS011;47692;53.714;11.372;2022-07-17T13:14:38;3.85;;;1.05;;
61785;SDS011;47692;53.714;11.372;2022-07-17T13:17:04;4.85;;;1.00;;
61785;SDS011;47692;53.714;11.372;2022-07-17T13:19:29;3.15;;;1.17;;
61785;SDS011;47692;53.714;11.372;2022-07-17T13:21:54;3.80;;;1.30;;
61785;SDS011;47692;53.714;11.372;2022-07-17T13:24:20;2.28;;;0.80;;
61785;SDS011;47692;53.714;11.372;2022-07-17T13:26:46;5.70;;;1.10;;
61785;SDS011;47692;53.714;11.372;2022-07-17T13:29:11;3.72;;;1.00;;
61785;SDS011;47692;53.714;11.372;2022-07-17T13:31:37;3.03;;;1.02;;
61785;SDS011;47692;53.714;11.372;2022-07-17T13:34:03;5.63;;;0.90;;
61785;SDS011;47692;53.714;11.372;2022-07-17T13:36:28;1.88;;;0.95;;
61785;SDS011;47692;53.714;11.372;2022-07-17T13:38:54;2.92;;;1.30;;
61785;SDS011;47692;53.714;11.372;2022-07-17T13:41:19;4.70;;;1.00;;
61785;SDS011;47692;53.714;11.372;2022-07-17T13:43:45;6.45;;;1.13;;
61785;SDS011;47692;53.714;11.372;2022-07-17T13:46:10;1.88;;;0.80;;
61785;SDS011;47692;53.714;11.372;2022-07-17T13:48:35;4.30;;;1.20;;
61785;SDS011;47692;53.714;11.372;2022-07-17T13:51:01;1.73;;;0.80;;
61785;SDS011;47692;53.714;11.372;2022-07-17T13:53:26;3.40;;;1.20;;
61785;SDS011;47692;53.714;11.372;2022-07-17T13:55:51;4.00;;;1.73;;
61785;SDS011;47692;53.714;11.372;2022-07-17T13:58:17;3.22;;;1.00;;
61785;SDS011;47692;53.714;11.372;2022-07-17T14:00:42;7.35;;;1.45;;
61785;SDS011;47692;53.714;11.372;2022-07-17T14:03:08;2.92;;;1.08;;
61785;SDS011;47692;53.714;11.372;2022-07-17T14:05:33;4.20;;;1.30;;
61785;SDS011;47692;53.714;11.372;2022-07-17T14:07:58;3.40;;;1.30;;
61785;SDS011;47692;53.714;11.372;2022-07-17T14:10:24;4.50;;;1.20;;
61785;SDS011;47692;53.714;11.372;2022-07-17T14:12:49;2.72;;;1.10;;
61785;SDS011;47692;53.714;11.372;2022-07-17T14:15:15;3.63;;;1.10;;
61785;SDS011;47692;53.714;11.372;2022-07-17T14:17:40;2.03;;;0.85;;
61785;SDS011;47692;53.714;11.372;2022-07-17T14:20:06;5.78;;;1.30;;
61785;SDS011;47692;53.714;11.372;2022-07-17T14:22:31;4.00;;;0.98;;
61785;SDS011;47692;53.714;11.372;2022-07-17T14:24:57;3.65;;;1.20;;
61785;SDS011;47692;53.714;11.372;2022-07-17T14:27:22;3.63;;;1.20;;
61785;SDS011;47692;53.714;11.372;2022-07-17T14:29:48;3.47;;;1.10;;
61785;SDS011;47692;53.714;11.372;2022-07-17T14:32:14;2.53;;;0.90;;
61785;SDS011;47692;53.714;11.372;2022-07-17T14:34:39;3.00;;;0.82;;
61785;SDS011;47692;53.714;11.372;2022-07-17T14:37:05;1.40;;;0.88;;
61785;SDS011;47692;53.714;11.372;2022-07-17T14:39:32;3.17;;;1.13;;
61785;SDS011;47692;53.714;11.372;2022-07-17T14:41:58;3.42;;;1.33;;
61785;SDS011;47692;53.714;11.372;2022-07-17T14:44:23;3.63;;;1.00;;
61785;SDS011;47692;53.714;11.372;2022-07-17T14:46:50;3.58;;;1.10;;
61785;SDS011;47692;53.714;11.372;2022-07-17T14:49:15;4.25;;;1.42;;
61785;SDS011;47692;53.714;11.372;2022-07-17T14:51:41;4.00;;;1.38;;
61785;SDS011;47692;53.714;11.372;2022-07-17T14:54:06;2.38;;;1.00;;